Time;durP1;ratioP1;P1;durP2;ratioP2;P2;SDS_P1;SDS_P2;PMS_P1;PMS_P2;Temp;Humidity;BMP_temperature;BMP_pressure;BME280_temperature;BME280_humidity;BME280_pressure;Samples;Min_cycle;Max_cycle;Signal;HPM_P1;HPM_P2
2023/03/24 00:01:42;;;;;;;;;3.00;3.00;;;;;16.95;100.00;99463.69;4893098;29;45398;-81
2023/03/24 00:04:07;;;;;;;;;5.33;5.33;;;;;16.95;100.00;99453.81;4877844;29;46731;-80
2023/03/24 00:06:35;;;;;;;;;8.33;5.00;;;;;16.98;100.00;99453.72;4879602;29;45577;-81
2023/03/24 00:09:02;;;;;;;;;7.00;7.00;;;;;16.90;100.00;99461.13;4895237;29;45399;-81
2023/03/24 00:11:28;;;;;;;;;4.33;4.33;;;;;16.88;100.00;99462.13;4895433;28;44771;-80
2023/03/24 00:13:57;;;;;;;;;3.33;3.33;;;;;16.82;100.00;99459.63;4896063;29;45036;-82
2023/03/24 00:16:23;;;;;;;;;4.67;4.67;;;;;16.88;100.00;99452.25;4877827;29;45351;-80
2023/03/24 00:18:51;;;;;;;;;5.33;4.67;;;;;16.96;100.00;99481.56;4894754;29;45455;-81
2023/03/24 00:21:23;;;;;;;;;5.00;5.00;;;;;17.12;100.00;99474.75;4893208;29;45426;-82
2023/03/24 00:23:49;;;;;;;;;6.00;6.00;;;;;17.07;100.00;99475.84;4892754;29;47565;-81
2023/03/24 00:26:18;;;;;;;;;5.00;4.00;;;;;17.11;100.00;99470.31;4894109;29;45477;-80
2023/03/24 00:28:47;;;;;;;;;4.33;4.33;;;;;17.16;100.00;99475.53;4894637;29;45702;-81
2023/03/24 00:31:17;;;;;;;;;4.67;4.33;;;;;17.16;100.00;99478.22;4891609;29;45491;-83
2023/03/24 00:33:49;;;;;;;;;5.00;5.00;;;;;17.16;100.00;99459.41;4877071;29;46874;-81
2023/03/24 00:36:15;;;;;;;;;5.33;5.33;;;;;17.07;100.00;99467.78;4879441;29;45579;-82
2023/03/24 00:38:41;;;;;;;;;4.00;4.00;;;;;17.03;100.00;99479.53;4898372;29;45394;-81
2023/03/24 00:41:09;;;;;;;;;4.00;4.00;;;;;17.13;100.00;99489.09;4899317;29;45461;-79
2023/03/24 00:43:35;;;;;;;;;3.00;3.00;;;;;17.06;100.00;99488.38;4897537;29;45362;-81
2023/03/24 00:46:06;;;;;;;;;7.00;5.00;;;;;17.16;100.00;99487.16;4897750;29;45424;-80
2023/03/24 00:48:33;;;;;;;;;3.00;3.00;;;;;17.09;100.00;99512.47;4880275;29;45493;-81
2023/03/24 00:51:01;;;;;;;;;4.33;4.33;;;;;17.21;100.00;99508.50;4880700;29;45538;-81
2023/03/24 00:53:28;;;;;;;;;5.00;5.00;;;;;17.14;100.00;99523.94;4896449;29;46881;-82
2023/03/24 00:55:56;;;;;;;;;2.75;2.75;;;;;17.13;100.00;99515.94;4880451;29;44837;-80
2023/03/24 00:58:21;;;;;;;;;3.00;3.00;;;;;16.99;100.00;99503.81;4880071;29;45395;-81
2023/03/24 01:00:52;;;;;;;;;3.00;3.00;;;;;17.10;100.00;99502.59;4897925;29;44781;-81
2023/03/24 01:03:20;;;;;;;;;3.67;3.67;;;;;17.07;100.00;99494.66;4895632;29;47206;-81
2023/03/24 01:05:47;;;;;;;;;5.00;3.00;;;;;16.99;100.00;99505.66;4895362;29;45462;-81
2023/03/24 01:08:19;;;;;;;;;2.25;2.25;;;;;16.97;100.00;99505.69;4896829;29;45539;-82
2023/03/24 01:10:49;;;;;;;;;4.67;3.00;;;;;16.92;100.00;99499.56;4903318;29;45216;-80
2023/03/24 01:13:33;;;;;;;;;2.50;2.50;;;;;17.05;100.00;99492.00;4915007;28;47687;-81
2023/03/24 01:16:00;;;;;;;;;4.00;4.00;;;;;16.97;100.00;99494.06;4916778;29;45360;-80
2023/03/24 01:18:26;;;;;;;;;3.00;3.00;;;;;16.95;100.00;99515.59;4915366;29;45357;-80
2023/03/24 01:20:52;;;;;;;;;1.75;1.75;;;;;17.00;100.00;99515.44;4916553;29;45318;-80
2023/03/24 01:23:21;;;;;;;;;1.50;1.50;;;;;17.02;100.00;99499.28;4897715;29;46855;-82
2023/03/24 01:25:47;;;;;;;;;2.50;2.50;;;;;16.97;100.00;99503.00;4916384;29;45412;-81
2023/03/24 01:28:28;;;;;;;;;2.33;2.33;;;;;17.05;100.00;99507.22;4898456;29;45410;-80
2023/03/24 01:30:54;;;;;;;;;2.75;2.75;;;;;16.94;100.00;99513.81;4916859;29;45833;-81
2023/03/24 01:33:21;;;;;;;;;4.00;4.00;;;;;16.87;100.00;99496.16;4883385;29;47554;-81
2023/03/24 01:35:46;;;;;;;;;3.50;2.25;;;;;16.90;100.00;99498.72;4898173;29;45748;-82
2023/03/24 01:38:13;;;;;;;;;2.25;1.75;;;;;16.85;100.00;99492.66;4898633;29;44917;-81
2023/03/24 01:44:21;;;;;;;;;1.50;1.50;;;;;17.04;100.00;99500.97;4915265;29;45421;-82
2023/03/24 01:46:46;;;;;;;;;1.50;1.50;;;;;17.07;100.00;99513.47;4912351;29;45614;-81
2023/03/24 01:49:12;;;;;;;;;2.25;1.75;;;;;17.09;100.00;99516.97;4897448;29;45388;-80
2023/03/24 01:51:41;;;;;;;;;2.00;2.00;;;;;17.20;100.00;99520.19;4897132;29;45354;-82
2023/03/24 01:57:37;;;;;;;;;1.00;1.00;;;;;17.16;100.00;99519.38;4896574;29;45406;-81
2023/03/24 02:00:12;;;;;;;;;1.00;1.00;;;;;17.21;100.00;99519.25;4879525;29;44771;-81
2023/03/24 02:02:41;;;;;;;;;2.00;2.00;;;;;17.11;100.00;99501.69;4895389;29;45433;-81
2023/03/24 02:05:10;;;;;;;;;2.00;2.00;;;;;16.96;100.00;99485.09;4896474;29;45365;-82
2023/03/24 02:07:41;;;;;;;;;1.00;1.00;;;;;16.91;100.00;99503.19;4895155;29;45612;-81
2023/03/24 02:10:18;;;;;;;;;1.25;1.25;;;;;16.98;100.00;99515.47;4896822;29;44886;-80
2023/03/24 02:12:44;;;;;;;;;2.00;2.00;;;;;16.82;100.00;99514.22;4896815;29;45463;-80
2023/03/24 02:15:12;;;;;;;;;3.00;2.00;;;;;16.88;100.00;99502.41;4897138;29;45846;-80
2023/03/24 02:17:59;;;;;;;;;3.00;3.00;;;;;16.89;100.00;99515.78;4896159;29;45449;-81
2023/03/24 02:20:46;;;;;;;;;2.50;1.00;;;;;16.91;100.00;99524.69;4879271;29;45387;-80
2023/03/24 02:23:39;;;;;;;;;2.33;2.00;;;;;16.97;100.00;99534.34;4896018;29;45399;-80
2023/03/24 02:26:27;;;;;;;;;2.33;2.33;;;;;16.99;100.00;99519.94;4893544;29;47405;-81
2023/03/24 02:29:21;;;;;;;;;1.00;1.00;;;;;16.98;100.00;99538.78;4895807;29;45411;-80
2023/03/24 02:32:23;;;;;;;;;2.00;2.00;;;;;16.96;100.00;99543.31;4894176;29;45407;-81
2023/03/24 02:35:14;;;;;;;;;1.67;1.67;;;;;16.92;100.00;99537.16;4873204;29;45549;-81
2023/03/24 02:37:53;;;;;;;;;2.25;1.00;;;;;16.75;100.00;99542.16;4894428;29;46774;-82
2023/03/24 02:40:22;;;;;;;;;3.33;2.00;;;;;16.89;100.00;99555.22;4896839;29;44797;-81
2023/03/24 02:43:09;;;;;;;;;2.00;2.00;;;;;16.92;100.00;99547.03;4897853;29;45425;-79
2023/03/24 02:45:39;;;;;;;;;1.67;1.67;;;;;16.83;100.00;99553.59;4896945;29;45766;-81
2023/03/24 02:48:18;;;;;;;;;2.00;2.00;;;;;16.88;100.00;99553.44;4895997;29;45795;-81
2023/03/24 02:50:54;;;;;;;;;3.00;1.67;;;;;16.85;100.00;99556.22;4894774;29;44931;-81
2023/03/24 02:53:54;;;;;;;;;2.00;0.33;;;;;16.83;100.00;99558.94;4893645;29;44861;-81
2023/03/24 02:56:26;;;;;;;;;1.00;1.00;;;;;16.76;100.00;99551.97;4882195;29;45326;-81
2023/03/24 02:58:59;;;;;;;;;2.00;1.00;;;;;16.89;100.00;99556.06;4893721;29;48133;-80
2023/03/24 03:01:39;;;;;;;;;1.00;1.00;;;;;16.92;100.00;99558.66;4896096;29;45421;-81
2023/03/24 03:04:18;;;;;;;;;0.00;0.00;;;;;16.86;100.00;99550.78;4895271;29;45364;-81
2023/03/24 03:06:51;;;;;;;;;0.00;0.00;;;;;16.73;100.00;99546.69;4896952;28;45468;-82
2023/03/24 03:09:20;;;;;;;;;1.25;1.00;;;;;16.69;100.00;99553.97;4897567;29;45534;-82
2023/03/24 03:11:59;;;;;;;;;1.00;0.00;;;;;16.74;100.00;99569.91;4899139;29;45488;-80
2023/03/24 03:14:50;;;;;;;;;0.00;0.00;;;;;16.73;100.00;99586.97;4914435;29;45571;-81
2023/03/24 03:17:24;;;;;;;;;0.00;0.00;;;;;16.66;100.00;99577.31;4912750;29;45405;-83
2023/03/24 03:19:56;;;;;;;;;1.50;0.00;;;;;16.59;100.00;99568.59;4915564;29;45695;-83
2023/03/24 03:22:27;;;;;;;;;0.00;0.00;;;;;16.48;100.00;99578.75;4915481;29;45468;-82
2023/03/24 03:24:56;;;;;;;;;1.00;1.00;;;;;16.41;100.00;99588.78;4916710;29;45361;-82
2023/03/24 03:27:31;;;;;;;;;1.00;1.00;;;;;16.38;100.00;99588.84;4897490;29;45547;-81
2023/03/24 03:30:03;;;;;;;;;1.00;1.00;;;;;16.33;100.00;99586.31;4897898;29;46852;-82
2023/03/24 03:32:33;;;;;;;;;0.50;0.50;;;;;16.29;100.00;99586.44;4898127;29;45376;-80
2023/03/24 03:35:01;;;;;;;;;0.00;0.00;;;;;16.13;100.00;99608.31;4897860;29;44892;-80
2023/03/24 03:38:00;;;;;;;;;1.50;0.50;;;;;16.22;100.00;99591.09;4914759;29;45334;-80
2023/03/24 03:40:34;;;;;;;;;0.50;0.50;;;;;16.21;100.00;99605.44;4912858;29;47302;-81
2023/03/24 03:42:59;;;;;;;;;1.00;1.00;;;;;15.99;100.00;99610.47;4897439;29;45489;-80
2023/03/24 03:45:25;;;;;;;;;1.00;1.00;;;;;15.98;100.00;99604.25;4915937;29;44770;-80
2023/03/24 03:47:51;;;;;;;;;1.00;1.00;;;;;16.03;100.00;99601.44;4913691;29;45365;-81
2023/03/24 03:50:17;;;;;;;;;1.00;1.00;;;;;15.92;100.00;99592.81;4899037;29;46941;-81
2023/03/24 03:52:44;;;;;;;;;1.25;1.00;;;;;16.07;100.00;99604.91;4900409;29;45449;-80
2023/03/24 03:55:11;;;;;;;;;0.00;0.00;;;;;16.00;100.00;99602.41;4915862;29;45382;-81
2023/03/24 03:57:37;;;;;;;;;2.00;1.00;;;;;15.99;100.00;99591.72;4906927;29;44873;-81
2023/03/24 04:00:14;;;;;;;;;1.00;1.00;;;;;15.98;100.00;99604.25;4893220;29;47228;-80
2023/03/24 04:03:04;;;;;;;;;3.00;1.67;;;;;16.03;100.00;99609.47;4895363;29;45215;-79
2023/03/24 04:05:34;;;;;;;;;1.00;1.00;;;;;16.03;100.00;99617.53;4897141;29;45362;-80
2023/03/24 04:08:31;;;;;;;;;0.75;0.75;;;;;16.09;100.00;99622.72;4894186;29;45181;-81
2023/03/24 04:11:35;;;;;;;;;2.00;2.00;;;;;16.04;100.00;99610.34;4881658;29;47327;-81
2023/03/24 04:14:11;;;;;;;;;0.00;0.00;;;;;15.98;100.00;99603.38;4899429;29;45394;-81
2023/03/24 04:16:57;;;;;;;;;2.00;1.00;;;;;16.00;100.00;99597.03;4898509;29;44881;-81
2023/03/24 04:19:59;;;;;;;;;1.00;1.00;;;;;16.04;100.00;99613.94;4897626;29;45477;-81
2023/03/24 04:22:37;;;;;;;;;0.00;0.00;;;;;15.93;100.00;99621.38;4858386;29;45410;-80
2023/03/24 04:25:23;;;;;;;;;0.00;0.00;;;;;15.97;100.00;99636.47;4843738;29;45484;-79
2023/03/24 04:28:10;;;;;;;;;0.25;0.25;;;;;15.99;100.00;99643.53;4858230;29;45526;-82
2023/03/24 04:30:44;;;;;;;;;1.00;1.00;;;;;16.04;100.00;99651.50;4857843;29;45540;-80
2023/03/24 04:33:45;;;;;;;;;0.00;0.00;;;;;16.07;100.00;99650.50;4842924;29;48063;-80
2023/03/24 04:36:21;;;;;;;;;3.67;2.00;;;;;16.03;100.00;99647.03;4855196;29;45858;-80
2023/03/24 04:38:56;;;;;;;;;0.33;0.33;;;;;16.01;100.00;99659.59;4844206;29;45432;-80
2023/03/24 04:41:24;;;;;;;;;2.50;1.00;;;;;15.95;100.00;99659.75;4844244;29;45392;-81
2023/03/24 04:43:53;;;;;;;;;0.25;0.25;;;;;15.90;100.00;99653.63;4860490;29;46148;-82
2023/03/24 04:46:20;;;;;;;;;0.67;0.67;;;;;15.87;100.00;99661.75;4844063;29;45845;-81
2023/03/24 04:48:49;;;;;;;;;0.00;0.00;;;;;15.84;100.00;99670.75;4860115;29;45482;-81
2023/03/24 04:51:17;;;;;;;;;0.00;0.00;;;;;15.91;100.00;99671.47;4860861;29;45444;-81
2023/03/24 04:53:43;;;;;;;;;0.33;0.33;;;;;15.73;100.00;99680.84;4844700;29;47175;-81
2023/03/24 04:56:18;;;;;;;;;3.00;1.00;;;;;15.83;100.00;99685.06;4861437;29;45280;-80
2023/03/24 04:58:43;;;;;;;;;1.00;1.00;;;;;15.63;100.00;99690.00;4880990;29;44746;-79
2023/03/24 05:01:09;;;;;;;;;1.00;1.00;;;;;15.59;100.00;99694.53;4898809;29;44778;-79
2023/03/24 05:03:36;;;;;;;;;1.00;1.00;;;;;15.54;100.00;99699.13;4915352;29;45720;-81
2023/03/24 05:06:04;;;;;;;;;1.00;1.00;;;;;15.48;100.00;99684.06;4901114;29;45834;-81
2023/03/24 05:08:30;;;;;;;;;1.00;1.00;;;;;15.47;100.00;99692.13;4917121;29;44827;-81
2023/03/24 05:10:56;;;;;;;;;1.00;0.67;;;;;15.37;100.00;99687.00;4900123;29;45435;-80
2023/03/24 05:13:22;;;;;;;;;3.00;2.00;;;;;15.38;100.00;99693.25;4918212;29;46169;-81
2023/03/24 05:15:47;;;;;;;;;3.67;1.33;;;;;15.30;100.00;99685.38;4900612;29;45375;-80
2023/03/24 05:18:13;;;;;;;;;2.67;1.33;;;;;15.29;100.00;99688.97;4901031;29;45435;-81
2023/03/24 05:20:46;;;;;;;;;2.00;1.00;;;;;15.38;100.00;99702.16;4900979;29;44913;-82
2023/03/24 05:23:11;;;;;;;;;0.67;0.67;;;;;15.20;100.00;99698.06;4900799;29;48111;-80
2023/03/24 05:25:37;;;;;;;;;1.00;1.00;;;;;15.14;100.00;99700.00;4915794;29;45547;-80
2023/03/24 05:28:03;;;;;;;;;1.00;1.00;;;;;15.19;100.00;99711.53;4893131;29;45304;-82
2023/03/24 05:30:28;;;;;;;;;1.00;1.00;;;;;15.04;100.00;99701.13;4900224;29;45527;-81
2023/03/24 05:32:54;;;;;;;;;0.75;0.75;;;;;15.04;100.00;99709.16;4918206;29;46122;-80
2023/03/24 05:35:19;;;;;;;;;1.33;1.33;;;;;14.98;100.00;99710.16;4900746;29;45369;-81
2023/03/24 05:37:45;;;;;;;;;1.00;1.00;;;;;14.86;100.00;99707.72;4917795;29;44819;-81
2023/03/24 05:40:14;;;;;;;;;2.00;2.00;;;;;15.00;100.00;99724.41;4918738;29;45403;-80
2023/03/24 05:42:40;;;;;;;;;0.00;0.00;;;;;14.82;100.00;99730.13;4900247;29;46916;-82
2023/03/24 05:45:06;;;;;;;;;1.00;1.00;;;;;14.83;100.00;99727.44;4918251;29;45390;-79
2023/03/24 05:47:31;;;;;;;;;1.67;1.67;;;;;14.77;100.00;99736.44;4916932;29;44809;-81
2023/03/24 05:49:57;;;;;;;;;2.00;2.00;;;;;14.79;100.00;99734.63;4900650;29;45404;-80
2023/03/24 05:52:22;;;;;;;;;1.00;1.00;;;;;14.73;100.00;99747.25;4899755;29;47256;-80
2023/03/24 05:54:50;;;;;;;;;2.00;0.00;;;;;14.69;100.00;99737.50;4917401;29;45371;-80
2023/03/24 05:57:17;;;;;;;;;0.75;0.75;;;;;14.76;100.00;99752.53;4916452;29;45508;-80
2023/03/24 05:59:42;;;;;;;;;2.00;2.00;;;;;14.69;100.00;99743.75;4914705;29;45376;-80
2023/03/24 06:02:08;;;;;;;;;2.33;1.00;;;;;14.69;100.00;99743.75;4913170;29;47321;-80
2023/03/24 06:04:33;;;;;;;;;1.25;0.00;;;;;14.71;100.00;99759.78;4931481;28;45131;-82
2023/03/24 06:06:59;;;;;;;;;4.00;2.00;;;;;14.69;100.00;99758.94;4918671;29;45422;-82
2023/03/24 06:09:34;;;;;;;;;2.00;1.00;;;;;14.78;100.00;99774.78;4900498;29;45688;-82
2023/03/24 06:12:07;;;;;;;;;3.00;2.00;;;;;14.68;100.00;99778.56;4916079;29;45733;-82
2023/03/24 06:14:36;;;;;;;;;2.00;1.00;;;;;14.63;100.00;99785.81;4914294;29;44826;-80
2023/03/24 06:17:01;;;;;;;;;2.33;1.00;;;;;14.56;100.00;99771.63;4916095;29;45333;-81
2023/03/24 06:19:29;;;;;;;;;2.00;1.67;;;;;14.65;100.00;99786.66;4915933;29;45006;-82
2023/03/24 06:22:01;;;;;;;;;1.00;1.00;;;;;14.69;100.00;99791.03;4915782;29;46099;-81
2023/03/24 06:24:28;;;;;;;;;3.33;2.00;;;;;14.67;100.00;99795.53;4930501;28;45313;-81
2023/03/24 06:27:00;;;;;;;;;1.33;1.00;;;;;14.69;100.00;99799.06;4916247;29;45410;-82
2023/03/24 06:29:28;;;;;;;;;3.00;2.00;;;;;14.75;100.00;99801.63;4915055;28;45304;-81
2023/03/24 06:31:53;;;;;;;;;1.67;1.67;;;;;14.76;100.00;99803.38;4914047;29;45467;-81
2023/03/24 06:34:21;;;;;;;;;0.33;0.33;;;;;14.87;100.00;99813.91;4914618;29;45379;-81
2023/03/24 06:36:46;;;;;;;;;2.33;2.33;;;;;14.96;100.00;99809.25;4916265;29;45396;-81
2023/03/24 06:39:12;;;;;;;;;2.00;2.00;;;;;15.13;100.00;99822.34;4914626;29;45527;-82
2023/03/24 06:41:41;;;;;;;;;1.00;1.00;;;;;15.29;100.00;99820.25;4915856;29;45977;-81
2023/03/24 06:44:06;;;;;;;;;3.00;1.33;;;;;15.20;100.00;99828.44;4915689;29;45397;-82
2023/03/24 06:46:34;;;;;;;;;1.33;1.33;;;;;15.20;100.00;99828.44;4917095;29;45469;-80
2023/03/24 06:49:01;;;;;;;;;1.33;1.33;;;;;15.13;100.00;99816.97;4916657;29;45393;-81
2023/03/24 06:51:29;;;;;;;;;1.00;1.00;;;;;15.17;100.00;99829.41;4914339;29;47755;-81
2023/03/24 06:54:02;;;;;;;;;3.00;1.33;;;;;15.16;100.00;99832.09;4914828;29;45500;-81
2023/03/24 06:56:29;;;;;;;;;1.33;0.00;;;;;15.07;100.00;99826.91;4917713;29;45491;-81
2023/03/24 06:59:01;;;;;;;;;2.00;1.00;;;;;15.30;100.00;99832.72;4916864;29;44768;-81
2023/03/24 07:01:27;;;;;;;;;4.33;3.00;;;;;15.26;100.00;99833.69;4899459;29;45171;-82
2023/03/24 07:03:52;;;;;;;;;1.00;1.00;;;;;15.30;100.00;99829.16;4915116;29;45363;-81
2023/03/24 07:06:18;;;;;;;;;3.00;3.00;;;;;15.40;100.00;99831.59;4917277;29;44795;-81
2023/03/24 07:08:44;;;;;;;;;3.33;1.00;;;;;15.37;100.00;99825.41;4916034;29;45395;-82
2023/03/24 07:11:10;;;;;;;;;5.00;3.67;;;;;15.44;100.00;99837.78;4920744;28;47675;-81
2023/03/24 07:13:37;;;;;;;;;2.33;2.33;;;;;15.54;100.00;99843.84;4900030;29;45442;-81
2023/03/24 07:16:02;;;;;;;;;2.67;2.67;;;;;15.60;100.00;99849.97;4909088;29;45487;-81
2023/03/24 07:18:28;;;;;;;;;1.67;1.67;;;;;15.66;100.00;99838.22;4899632;29;45620;-82
2023/03/24 07:20:53;;;;;;;;;4.33;2.00;;;;;15.71;100.00;99852.41;4916597;29;45175;-82
2023/03/24 07:24:05;;;;;;;;;3.67;2.00;;;;;15.94;100.00;99864.50;4899669;29;45223;-82
2023/03/24 07:26:31;;;;;;;;;1.33;1.00;;;;;15.87;100.00;99860.16;4900676;29;45295;-81
2023/03/24 07:28:56;;;;;;;;;3.00;1.33;;;;;15.91;100.00;99843.09;4916540;28;45364;-82
2023/03/24 07:31:23;;;;;;;;;3.67;2.00;;;;;15.96;100.00;99868.03;4898816;29;47170;-81
2023/03/24 07:33:49;;;;;;;;;1.00;1.00;;;;;16.02;100.00;99866.97;4899033;29;45216;-80
2023/03/24 07:36:20;;;;;;;;;1.00;1.00;;;;;16.17;100.00;99861.28;4915544;29;45375;-80
2023/03/24 07:38:49;;;;;;;;;4.67;3.67;;;;;16.13;100.00;99847.03;4916281;29;44958;-80
2023/03/24 07:41:15;;;;;;;;;3.33;2.00;;;;;16.08;100.00;99857.00;4915685;29;46230;-82
2023/03/24 07:43:46;;;;;;;;;2.33;2.00;;;;;16.23;100.00;99854.88;4916663;29;45330;-81
2023/03/24 07:47:08;;;;;;;;;2.00;2.00;;;;;16.39;100.00;99859.84;4903892;29;45418;-80
2023/03/24 07:49:37;;;;;;;;;2.67;2.67;;;;;16.38;100.00;99859.88;4903603;29;45736;-81
2023/03/24 07:52:05;;;;;;;;;1.67;1.67;;;;;16.27;100.00;99856.59;4912316;29;46251;-81
2023/03/24 07:54:32;;;;;;;;;2.00;2.00;;;;;16.26;100.00;99869.13;4920244;29;45200;-80
2023/03/24 07:57:06;;;;;;;;;2.00;2.00;;;;;16.50;100.00;99872.13;4920460;29;45371;-81
2023/03/24 07:59:42;;;;;;;;;2.33;2.00;;;;;16.40;100.00;99861.63;4922002;28;44848;-83
2023/03/24 08:02:21;;;;;;;;;2.00;2.00;;;;;16.59;100.00;99880.84;4914160;29;45774;-81
2023/03/24 08:04:52;;;;;;;;;1.67;1.33;;;;;16.70;100.00;99899.34;4920923;29;44689;-80
2023/03/24 08:07:19;;;;;;;;;3.33;3.33;;;;;16.73;100.00;99885.00;4916768;29;45358;-80
2023/03/24 08:09:47;;;;;;;;;4.33;1.67;;;;;16.88;100.00;99887.31;4921419;29;44888;-82
2023/03/24 08:12:13;;;;;;;;;4.00;2.00;;;;;16.69;100.00;99865.38;4918018;29;47242;-81
2023/03/24 08:14:58;;;;;;;;;2.67;1.67;;;;;17.05;100.00;99865.41;4920358;29;45319;-80
2023/03/24 08:17:38;;;;;;;;;4.00;2.00;;;;;16.90;100.00;99855.91;4933532;28;45434;-83
2023/03/24 08:20:16;;;;;;;;;2.25;1.75;;;;;17.06;98.55;99877.03;4920362;29;44896;-81
2023/03/24 08:22:48;;;;;;;;;4.00;2.50;;;;;17.06;97.78;99890.44;4919826;29;45454;-82
2023/03/24 08:25:39;;;;;;;;;2.00;2.00;;;;;17.12;97.09;99896.53;4900656;29;44901;-81
2023/03/24 08:28:10;;;;;;;;;2.75;1.25;;;;;17.03;99.65;99869.03;4905123;29;45206;-84
2023/03/24 08:30:42;;;;;;;;;2.67;2.00;;;;;16.96;100.00;99852.19;4914546;29;45473;-82
2023/03/24 08:33:17;;;;;;;;;2.00;2.00;;;;;17.23;100.00;99888.22;4902058;29;45505;-82
2023/03/24 08:35:44;;;;;;;;;3.00;2.00;;;;;17.30;100.00;99889.78;4889056;29;46419;-81
2023/03/24 08:38:13;;;;;;;;;5.00;4.00;;;;;17.43;100.00;99889.44;4899313;29;45482;-80
2023/03/24 08:40:51;;;;;;;;;1.33;1.00;;;;;17.69;98.19;99907.53;4902860;29;44810;-82
2023/03/24 08:43:16;;;;;;;;;1.00;1.00;;;;;17.54;96.97;99876.59;4896347;29;47300;-84
2023/03/24 08:45:49;;;;;;;;;4.25;3.75;;;;;17.82;98.77;99906.28;4916782;29;45370;-80
2023/03/24 08:48:18;;;;;;;;;4.50;2.00;;;;;17.90;96.80;99889.94;4899249;29;45377;-80
2023/03/24 08:50:44;;;;;;;;;1.25;0.75;;;;;17.76;96.23;99901.94;4903088;29;45817;-82
2023/03/24 08:53:19;;;;;;;;;2.00;2.00;;;;;17.66;90.94;99903.13;4894169;29;47900;-81
2023/03/24 08:55:45;;;;;;;;;3.50;1.00;;;;;17.32;93.38;99900.50;4899414;29;45562;-82
2023/03/24 08:58:35;;;;;;;;;2.25;1.75;;;;;17.39;91.27;99913.75;4914907;29;45402;-81
2023/03/24 09:10:56;;;;;;;;;0.75;0.50;;;;;17.06;93.58;99922.69;4914812;29;44743;-82
2023/03/24 09:14:01;;;;;;;;;2.75;1.25;;;;;17.51;90.88;99930.44;4843680;29;45448;-82
2023/03/24 09:16:52;;;;;;;;;2.75;1.25;;;;;17.44;91.00;99924.38;4854194;29;45249;-80
2023/03/24 09:19:44;;;;;;;;;2.75;1.50;;;;;17.62;93.13;99927.47;4836995;29;45460;-82
2023/03/24 09:22:59;;;;;;;;;2.25;2.25;;;;;17.94;91.81;99942.72;4835266;29;45514;-82
2023/03/24 09:25:31;;;;;;;;;1.00;1.00;;;;;17.88;88.04;99913.31;4839606;29;45526;-82
2023/03/24 09:27:56;;;;;;;;;5.50;2.75;;;;;18.02;85.90;99954.16;4843532;29;47407;-81
2023/03/24 09:30:43;;;;;;;;;3.25;1.00;;;;;18.07;83.26;99929.78;4848186;29;44901;-83
2023/03/24 09:33:35;;;;;;;;;1.00;1.00;;;;;18.19;87.29;99914.16;4844465;29;45531;-82
2023/03/24 09:36:31;;;;;;;;;1.25;1.00;;;;;18.45;85.78;99935.81;4839165;29;44939;-83
2023/03/24 09:38:56;;;;;;;;;4.00;0.75;;;;;18.42;83.66;99943.97;4848021;29;45531;-82
2023/03/24 09:41:34;;;;;;;;;1.75;1.75;;;;;18.50;81.41;99929.38;4847209;29;45431;-83
2023/03/24 09:44:48;;;;;;;;;1.00;1.00;;;;;18.71;80.44;99954.72;4848875;29;45635;-81
2023/03/24 09:47:40;;;;;;;;;2.00;2.00;;;;;18.70;82.82;99950.25;4896646;29;45529;-79
2023/03/24 09:50:54;;;;;;;;;1.50;1.00;;;;;18.79;82.72;99947.31;4887682;28;46978;-81
2023/03/24 09:53:37;;;;;;;;;2.00;1.00;;;;;18.57;81.89;99939.00;4803957;29;45309;-83
2023/03/24 09:56:40;;;;;;;;;1.25;1.25;;;;;18.73;82.78;99957.38;4799018;29;45376;-81
2023/03/24 09:59:34;;;;;;;;;2.75;2.75;;;;;18.83;82.62;99952.63;4755535;29;45756;-79
2023/03/24 10:02:22;;;;;;;;;1.25;1.25;;;;;18.94;82.45;99951.31;4756420;29;45370;-82
2023/03/24 10:04:56;;;;;;;;;1.50;1.50;;;;;18.83;82.27;99931.94;4752728;29;45369;-80
2023/03/24 10:07:50;;;;;;;;;3.25;2.75;;;;;19.03;81.97;99955.53;4749661;30;44892;-81
2023/03/24 10:10:39;;;;;;;;;1.50;1.00;;;;;19.09;80.85;99938.28;4761250;29;45598;-81
2023/03/24 10:13:20;;;;;;;;;4.00;3.00;;;;;19.11;79.69;99921.13;4751227;29;47736;-82
2023/03/24 10:16:16;;;;;;;;;;;;;;;;;;;;;
2023/03/24 10:19:26;;;;;;;;;2.00;2.00;;;;;19.23;77.39;99930.59;4749601;30;68874;-81
2023/03/24 10:22:42;;;;;;;;;;;;;;;;;;;;;
2023/03/24 10:25:37;;;;;;;;;3.50;2.00;;;;;19.38;75.51;99962.41;4747347;29;75377;-83
2023/03/24 10:28:24;;;;;;;;;1.25;0.00;;;;;19.36;75.61;99972.34;4743521;29;45547;-81
2023/03/24 10:30:54;;;;;;;;;2.00;2.00;;;;;19.32;76.82;99964.44;4816904;29;45457;-79
2023/03/24 10:33:20;;;;;;;;;1.75;1.25;;;;;19.16;77.55;99953.28;4816805;29;45628;-80
2023/03/24 10:36:18;;;;;;;;;3.00;1.75;;;;;19.35;76.00;99943.66;4882054;29;47051;-80
2023/03/24 10:38:45;;;;;;;;;2.67;1.67;;;;;19.30;73.47;99952.81;4903163;29;44818;-80
2023/03/24 10:41:26;;;;;;;;;1.33;1.33;;;;;19.42;77.07;99954.22;4884360;29;44837;-80
2023/03/24 10:43:59;;;;;;;;;0.33;0.00;;;;;19.72;76.08;99965.75;4879300;29;45422;-81
2023/03/24 10:46:32;;;;;;;;;2.00;1.00;;;;;19.79;74.61;99948.41;4894983;29;47094;-80
2023/03/24 10:49:16;;;;;;;;;1.00;1.00;;;;;20.05;72.46;99962.75;4894714;29;45407;-81
2023/03/24 10:51:50;;;;;;;;;2.00;1.33;;;;;19.81;73.03;99948.34;4897084;29;45515;-80
2023/03/24 10:54:25;;;;;;;;;4.00;4.00;;;;;19.87;70.85;99965.19;4915655;29;44872;-81
2023/03/24 10:57:05;;;;;;;;;2.00;1.67;;;;;19.65;74.44;99938.06;4896711;29;47313;-81
2023/03/24 10:59:59;;;;;;;;;1.50;1.50;;;;;19.77;74.12;99940.38;4911745;29;45312;-80
2023/03/24 11:03:43;;;;;;;;;;;;;;;;;;;;;
2023/03/24 11:07:08;;;;;;;;;;;;;;;;;;;;;
2023/03/24 11:09:42;;;;;;;;;3.00;1.67;;;;;19.71;76.00;99939.72;4834048;29;74660;-81
2023/03/24 11:16:25;;;;;;;;;3.25;1.75;;;;;19.80;73.58;99970.88;4838373;29;45366;-81
2023/03/24 11:19:00;;;;;;;;;2.00;2.00;;;;;19.67;74.25;99963.19;4815267;29;45528;-82
2023/03/24 11:21:38;;;;;;;;;2.25;2.00;;;;;19.56;70.93;99949.22;4835490;29;46549;-80
2023/03/24 11:24:19;;;;;;;;;5.50;3.00;;;;;19.67;74.17;99951.50;4833069;29;45791;-81
2023/03/24 11:26:55;;;;;;;;;1.00;1.00;;;;;19.85;71.07;99958.09;4844404;29;45263;-82
2023/03/24 11:29:38;;;;;;;;;2.00;1.25;;;;;19.73;73.27;99959.41;4854428;29;45476;-82
2023/03/24 11:32:47;;;;;;;;;1.50;1.00;;;;;19.59;71.41;99954.47;4833091;29;45650;-83
2023/03/24 11:35:17;;;;;;;;;4.00;2.00;;;;;19.50;80.58;99952.13;4816178;29;44912;-81
2023/03/24 11:38:14;;;;;;;;;5.00;1.33;;;;;19.68;80.98;99983.84;4826102;29;45466;-82
2023/03/24 11:41:04;;;;;;;;;3.33;2.33;;;;;19.54;82.15;99973.53;4840598;29;45340;-83
2023/03/24 11:43:31;;;;;;;;;2.67;2.00;;;;;19.36;82.30;99980.44;4856385;29;45464;-80
2023/03/24 11:46:30;;;;;;;;;4.33;1.00;;;;;19.64;81.45;99979.50;4856816;29;44819;-82
2023/03/24 11:48:59;;;;;;;;;4.67;3.33;;;;;19.61;80.94;99971.50;4841439;29;45748;-83
2023/03/24 11:51:52;;;;;;;;;1.75;1.25;;;;;19.79;79.80;99978.06;4857156;29;45310;-82
2023/03/24 11:54:23;;;;;;;;;2.00;2.00;;;;;20.02;78.70;99957.47;4859380;29;45595;-83
2023/03/24 11:57:03;;;;;;;;;3.75;2.75;;;;;20.32;75.53;99960.81;4875941;29;44840;-82
2023/03/24 11:59:57;;;;;;;;;2.75;1.00;;;;;20.49;74.48;99949.38;4860224;29;45403;-82
2023/03/24 12:02:56;;;;;;;;;1.33;1.33;;;;;20.70;74.17;99961.16;4857074;29;45575;-83
2023/03/24 12:09:48;;;;;;;;;2.00;2.00;;;;;20.62;66.52;99963.28;4812348;29;45565;-80
2023/03/24 12:12:37;;;;;;;;;1.00;1.00;;;;;20.34;65.33;99981.44;4816528;29;45510;-82
2023/03/24 12:15:23;;;;;;;;;0.00;0.00;;;;;19.88;69.87;99982.28;4814666;29;44942;-79
2023/03/24 12:18:53;;;;;;;;;;;;;;;;;;;;;
2023/03/24 12:28:44;;;;;;;;;0.75;0.75;;;;;18.43;83.36;100000.47;4790024;29;45310;-82
2023/03/24 12:31:28;;;;;;;;;1.67;1.00;;;;;18.31;84.98;99987.38;4777821;29;45099;-81
2023/03/24 12:34:41;;;;;;;;;0.00;0.00;;;;;18.11;85.25;99977.22;4786162;29;45593;-82
2023/03/24 12:37:27;;;;;;;;;0.75;0.75;;;;;18.25;85.59;99966.03;4797859;29;45493;-80
2023/03/24 12:41:10;;;;;;;;;1.50;0.75;;;;;18.20;86.35;99947.34;4779625;29;45743;-81
2023/03/24 12:44:24;;;;;;;;;2.00;2.00;;;;;18.21;87.62;99959.00;4783052;29;45397;-82
2023/03/24 12:47:25;;;;;;;;;2.00;0.75;;;;;18.14;88.18;99951.09;4813059;29;44822;-83
2023/03/24 12:53:52;;;;;;;;;3.67;2.33;;;;;18.43;87.46;99960.09;4822870;29;45409;-81